createdAt,value
2023-04-03T00:01:54.652Z,101853.34
2023-04-03T00:06:56.852Z,101853.44
2023-04-03T00:11:58.920Z,101859.97
2023-04-03T00:17:01.155Z,101847.72
2023-04-03T00:22:03.461Z,101853.97
2023-04-03T00:27:05.991Z,101837.72
2023-04-03T00:32:08.217Z,101826.16
2023-04-03T00:37:10.570Z,101821.13
2023-04-03T00:42:13.540Z,101810.78
2023-04-03T00:47:18.736Z,101797.66
2023-04-03T00:52:24.616Z,101793.94
2023-04-03T00:57:28.201Z,101790.28
2023-04-03T01:02:30.443Z,101784.97
2023-04-03T01:07:35.244Z,101774.53
2023-04-03T01:12:46.576Z,101754.19
2023-04-03T01:17:57.629Z,101757.69
2023-04-03T01:23:14.429Z,101748.16
2023-04-03T01:28:20.479Z,101742.84
2023-04-03T01:33:22.755Z,101730.31
2023-04-03T01:38:25.580Z,101742.56
2023-04-03T01:43:27.993Z,101720.50
2023-04-03T01:48:30.094Z,101728.38
2023-04-03T01:53:32.467Z,101711.88
2023-04-03T01:58:34.924Z,101700.31
2023-04-03T02:03:37.881Z,101683.47
2023-04-03T02:08:40.034Z,101680.66
2023-04-03T02:13:42.132Z,101673.81
2023-04-03T02:18:44.144Z,101685.25
2023-04-03T02:23:46.402Z,101693.41
2023-04-03T02:28:48.645Z,101693.97
2023-04-03T02:33:51.293Z,101697.41
2023-04-03T02:38:54.354Z,101691.34
2023-04-03T02:43:56.649Z,101688.22
2023-04-03T02:48:59.003Z,101685.75
2023-04-03T02:54:01.514Z,101668.50
2023-04-03T02:59:07.401Z,101627.91
2023-04-03T03:04:11.830Z,101650.06
2023-04-03T03:09:14.508Z,101627.44
2023-04-03T03:14:18.381Z,101645.03
2023-04-03T03:19:20.933Z,101649.09
2023-04-03T03:24:23.045Z,101648.28
2023-04-03T03:29:25.136Z,101639.56
2023-04-03T03:34:27.773Z,101647.03
2023-04-03T03:39:30.593Z,101646.25
2023-04-03T03:44:32.743Z,101663.00
2023-04-03T03:49:35.084Z,101647.03
2023-04-03T03:54:38.519Z,101664.72
2023-04-03T03:59:43.040Z,101661.78
2023-04-03T04:04:45.586Z,101669.66
2023-04-03T04:09:48.413Z,101669.75
2023-04-03T04:14:50.857Z,101659.50
2023-04-03T04:19:53.130Z,101649.97
2023-04-03T04:24:55.571Z,101654.97
2023-04-03T04:29:59.243Z,101643.34
2023-04-03T04:35:02.993Z,101649.38
2023-04-03T04:40:07.749Z,101630.34
2023-04-03T04:45:10.655Z,101640.22
2023-04-03T04:50:14.658Z,101610.00
2023-04-03T04:55:17.193Z,101625.06
2023-04-03T05:00:20.022Z,101627.84
2023-04-03T05:05:22.615Z,101645.16
2023-04-03T05:10:25.039Z,101633.56
2023-04-03T05:15:28.021Z,101653.97
2023-04-03T05:20:30.770Z,101643.63
2023-04-03T05:25:33.761Z,101643.81
2023-04-03T05:30:36.802Z,101649.69
2023-04-03T05:35:42.651Z,101654.97
2023-04-03T05:40:48.377Z,101664.72
2023-04-03T05:45:50.878Z,101676.56
2023-04-03T05:50:54.714Z,101694.16
2023-04-03T05:56:00.994Z,101694.81
2023-04-03T06:01:07.221Z,101703.72
2023-04-03T06:06:14.113Z,101703.91
2023-04-03T06:11:16.669Z,101704.94
2023-04-03T06:16:19.178Z,101710.44
2023-04-03T06:21:21.495Z,101712.72
2023-04-03T06:26:23.686Z,101719.53
2023-04-03T06:31:26.250Z,101726.63
2023-04-03T06:36:28.470Z,101739.38
2023-04-03T06:41:30.927Z,101732.50
2023-04-03T06:46:33.277Z,101749.25
2023-04-03T06:51:36.496Z,101742.16
2023-04-03T06:56:38.735Z,101743.81
2023-04-03T07:01:41.903Z,101752.53
2023-04-03T07:06:44.099Z,101750.56
2023-04-03T07:11:46.264Z,101764.78
2023-04-03T07:16:48.444Z,101759.72
2023-04-03T07:21:50.876Z,101759.06
2023-04-03T07:26:56.212Z,101753.69
2023-04-03T07:31:58.566Z,101768.53
2023-04-03T07:37:01.384Z,101765.81
2023-04-03T07:42:04.248Z,101768.72
2023-04-03T07:47:06.648Z,101775.91
2023-04-03T07:52:10.213Z,101762.56
2023-04-03T07:57:13.030Z,101774.88
2023-04-03T08:02:15.110Z,101760.78
2023-04-03T08:07:17.144Z,101764.53
2023-04-03T08:12:19.404Z,101759.44
2023-04-03T08:17:21.910Z,101770.03
2023-04-03T08:22:24.122Z,101764.53
2023-04-03T08:27:29.205Z,101770.53
2023-04-03T08:32:31.407Z,101779.50
2023-04-03T08:37:37.360Z,101799.25
2023-04-03T08:42:57.754Z,101780.91
2023-04-03T08:48:13.315Z,101791.22
2023-04-03T08:53:19.337Z,101797.19
2023-04-03T08:58:31.013Z,101806.94
2023-04-03T09:03:37.627Z,101814.22
2023-04-03T09:08:50.925Z,101806.34
2023-04-03T09:14:05.341Z,101808.13
2023-04-03T09:19:26.292Z,101790.53
2023-04-03T09:24:29.693Z,101792.34
2023-04-03T09:29:32.176Z,101799.34
2023-04-03T09:34:37.676Z,101790.16
2023-04-03T09:39:57.245Z,101796.25
2023-04-03T09:45:05.993Z,101798.13
2023-04-03T09:50:14.335Z,101792.25
2023-04-03T09:55:27.928Z,101795.81
2023-04-03T10:00:37.592Z,101788.56
2023-04-03T10:05:42.855Z,101785.66
2023-04-03T10:10:50.089Z,101770.59
2023-04-03T10:15:57.742Z,101774.47
2023-04-03T10:21:27.718Z,101768.50
2023-04-03T10:26:43.976Z,101765.75
2023-04-03T10:31:52.182Z,101749.00
2023-04-03T10:37:31.203Z,101755.72
2023-04-03T10:42:48.565Z,101739.94
2023-04-03T10:47:56.305Z,101736.44
2023-04-03T10:53:10.119Z,101735.66
2023-04-03T10:58:44.934Z,101724.22
2023-04-03T11:03:50.873Z,101732.66
2023-04-03T11:09:00.531Z,101718.56
2023-04-03T11:14:27.510Z,101716.97
2023-04-03T11:19:37.751Z,101712.50
2023-04-03T11:24:43.833Z,101705.50
2023-04-03T11:29:47.904Z,101703.59
2023-04-03T11:34:59.820Z,101700.94
2023-04-03T11:40:10.502Z,101697.34
2023-04-03T11:45:33.973Z,101702.72
2023-04-03T11:50:36.258Z,101697.34
2023-04-03T11:55:50.633Z,101695.66
2023-04-03T12:00:58.992Z,101682.50
2023-04-03T12:06:14.836Z,101683.16
2023-04-03T12:11:27.584Z,101677.00
2023-04-03T12:16:32.534Z,101670.78
2023-04-03T12:21:37.692Z,101671.72
2023-04-03T12:26:49.110Z,101653.16
2023-04-03T12:31:57.525Z,101662.75
2023-04-03T12:37:26.434Z,101646.84
2023-04-03T12:42:57.526Z,101650.16
2023-04-03T12:48:03.823Z,101633.59
2023-04-03T12:53:21.863Z,101622.06
2023-04-03T12:58:23.939Z,101614.97
2023-04-03T13:03:28.505Z,101611.25
2023-04-03T13:08:31.880Z,101605.94
2023-04-03T13:13:34.009Z,101605.09
2023-04-03T13:18:37.860Z,101600.00
2023-04-03T13:23:41.582Z,101599.88
2023-04-03T13:28:44.984Z,101599.72
2023-04-03T13:34:20.781Z,101594.31
2023-04-03T13:39:26.853Z,101589.88
2023-04-03T13:44:35.721Z,101589.03
2023-04-03T13:49:42.009Z,101573.84
2023-04-03T13:54:48.539Z,101573.00
2023-04-03T13:59:51.293Z,101554.44
2023-04-03T14:05:02.768Z,101561.47
2023-04-03T14:10:05.632Z,101555.31
2023-04-03T14:15:25.853Z,101570.56
2023-04-03T14:20:28.837Z,101571.13
2023-04-03T14:25:31.261Z,101562.22
2023-04-03T14:30:36.765Z,101568.56
2023-04-03T14:35:39.323Z,101556.94
2023-04-03T14:40:42.162Z,101564.66
2023-04-03T14:45:44.728Z,101563.00
2023-04-03T14:50:58.313Z,101551.72
2023-04-03T14:56:17.202Z,101536.66
2023-04-03T15:01:19.806Z,101538.06
2023-04-03T15:06:22.213Z,101538.84
2023-04-03T15:11:26.900Z,101538.00
2023-04-03T15:16:29.635Z,101529.41
2023-04-03T15:21:31.838Z,101532.13
2023-04-03T15:26:34.273Z,101531.19
2023-04-03T15:31:36.573Z,101532.13
2023-04-03T15:36:38.784Z,101524.09
2023-04-03T15:41:41.324Z,101521.16
2023-04-03T15:46:43.424Z,101517.53
2023-04-03T15:51:45.861Z,101513.09
2023-04-03T15:56:48.011Z,101508.06
2023-04-03T16:01:52.411Z,101504.47
2023-04-03T16:06:54.795Z,101502.38
2023-04-03T16:11:57.487Z,101505.88
2023-04-03T16:17:03.386Z,101497.06
2023-04-03T16:22:05.888Z,101514.91
2023-04-03T16:27:08.386Z,101506.09
2023-04-03T16:32:10.956Z,101513.75
2023-04-03T16:37:12.983Z,101508.63
2023-04-03T16:42:15.569Z,101500.66
2023-04-03T16:47:20.392Z,101501.66
2023-04-03T16:52:22.572Z,101484.88
2023-04-03T16:57:26.048Z,101483.66
2023-04-03T17:02:28.849Z,101481.72
2023-04-03T17:07:31.162Z,101480.91
2023-04-03T17:12:33.384Z,101477.50
2023-04-03T17:17:35.898Z,101485.44
2023-04-03T17:22:38.198Z,101475.88
2023-04-03T17:27:40.618Z,101481.84
2023-04-03T17:32:42.801Z,101472.94
2023-04-03T17:37:44.996Z,101476.81
2023-04-03T17:42:46.989Z,101467.06
2023-04-03T17:47:51.449Z,101467.75
2023-04-03T17:52:53.496Z,101475.59
2023-04-03T17:57:55.755Z,101468.59
2023-04-03T18:02:58.968Z,101473.13
2023-04-03T18:08:01.966Z,101472.19
2023-04-03T18:13:07.478Z,101480.03
2023-04-03T18:18:10.302Z,101466.88
2023-04-03T18:23:12.681Z,101477.50
2023-04-03T18:28:14.920Z,101475.03
2023-04-03T18:33:17.145Z,101486.47
2023-04-03T18:38:19.438Z,101480.22
2023-04-03T18:43:21.682Z,101479.28
2023-04-03T18:48:24.895Z,101473.03
2023-04-03T18:53:27.130Z,101465.19
2023-04-03T18:58:29.272Z,101460.72
2023-04-03T19:03:32.764Z,101466.13
2023-04-03T19:08:35.477Z,101467.91
2023-04-03T19:13:46.604Z,101469.00
2023-04-03T19:19:00.789Z,101469.72
2023-04-03T19:24:02.923Z,101462.94
2023-04-03T19:29:05.695Z,101480.13
2023-04-03T19:34:08.369Z,101490.91
2023-04-03T19:39:10.516Z,101495.38
2023-04-03T19:44:13.182Z,101496.22
2023-04-03T19:49:15.272Z,101494.53
2023-04-03T19:54:17.833Z,101505.97
2023-04-03T19:59:20.061Z,101508.63
2023-04-03T20:04:22.270Z,101508.75
2023-04-03T20:09:24.594Z,101512.44
2023-04-03T20:14:27.583Z,101505.97
2023-04-03T20:19:30.538Z,101490.06
2023-04-03T20:24:32.644Z,101483.94
2023-04-03T20:29:37.134Z,101476.00
2023-04-03T20:34:39.450Z,101479.47
2023-04-03T20:39:41.811Z,101486.69
2023-04-03T20:44:46.251Z,101482.41
2023-04-03T20:49:49.173Z,101486.78
2023-04-03T20:54:52.968Z,101493.78
2023-04-03T20:59:55.048Z,101491.91
2023-04-03T21:04:57.097Z,101492.94
2023-04-03T21:10:37.558Z,101489.63
2023-04-03T21:16:00.301Z,101495.75
2023-04-03T21:21:03.321Z,101493.13
2023-04-03T21:26:05.483Z,101497.47
2023-04-03T21:31:07.702Z,101487.72
2023-04-03T21:36:10.405Z,101491.22
2023-04-03T21:41:12.539Z,101497.47
2023-04-03T21:46:14.713Z,101503.63
2023-04-03T21:51:19.626Z,101492.16
2023-04-03T21:56:24.899Z,101479.69
2023-04-03T22:01:27.254Z,101470.97
2023-04-03T22:06:30.030Z,101475.31
2023-04-03T22:11:32.896Z,101478.81
2023-04-03T22:16:35.228Z,101483.38
2023-04-03T22:21:37.341Z,101477.03
2023-04-03T22:26:40.113Z,101466.91
2023-04-03T22:31:42.580Z,101470.13
2023-04-03T22:36:44.786Z,101479.03
2023-04-03T22:41:46.900Z,101484.22
2023-04-03T22:46:49.317Z,101479.84
2023-04-03T22:51:51.538Z,101466.72
2023-04-03T22:56:53.664Z,101467.47
2023-04-03T23:01:55.713Z,101471.81
2023-04-03T23:07:00.143Z,101471.91
2023-04-03T23:12:02.529Z,101470.88
2023-04-03T23:17:06.182Z,101470.88
2023-04-03T23:22:08.526Z,101463.88
2023-04-03T23:27:10.738Z,101465.56
2023-04-03T23:32:13.091Z,101461.44
2023-04-03T23:37:17.012Z,101460.50
2023-04-03T23:42:19.183Z,101456.88
2023-04-03T23:47:21.304Z,101452.53
2023-04-03T23:52:23.547Z,101451.56
2023-04-03T23:57:25.656Z,101443.91
